sensor_id;sensor_type;location;lat;lon;timestamp;temperature;humidity
71514;DHT22;59335;46.652;21.272;2024-01-11T00:01:47;22.60;27.84
71514;DHT22;59335;46.652;21.272;2024-01-11T00:04:50;22.61;27.81
71514;DHT22;59335;46.652;21.272;2024-01-11T00:07:53;22.60;27.84
71514;DHT22;59335;46.652;21.272;2024-01-11T00:10:56;22.58;27.92
71514;DHT22;59335;46.652;21.272;2024-01-11T00:13:59;22.60;27.87
71514;DHT22;59335;46.652;21.272;2024-01-11T00:17:01;22.60;27.81
71514;DHT22;59335;46.652;21.272;2024-01-11T00:20:05;22.61;27.82
71514;DHT22;59335;46.652;21.272;2024-01-11T00:23:08;22.60;27.63
71514;DHT22;59335;46.652;21.272;2024-01-11T00:26:14;22.61;27.78
71514;DHT22;59335;46.652;21.272;2024-01-11T00:29:17;22.60;27.74
71514;DHT22;59335;46.652;21.272;2024-01-11T00:32:20;22.61;27.79
71514;DHT22;59335;46.652;21.272;2024-01-11T00:35:24;22.60;27.74
71514;DHT22;59335;46.652;21.272;2024-01-11T00:38:26;22.61;27.75
71514;DHT22;59335;46.652;21.272;2024-01-11T00:41:29;22.58;27.72
71514;DHT22;59335;46.652;21.272;2024-01-11T00:44:32;22.60;27.81
71514;DHT22;59335;46.652;21.272;2024-01-11T00:47:35;22.60;27.75
71514;DHT22;59335;46.652;21.272;2024-01-11T00:50:38;22.60;27.83
71514;DHT22;59335;46.652;21.272;2024-01-11T00:53:42;22.60;27.60
71514;DHT22;59335;46.652;21.272;2024-01-11T00:56:45;22.63;27.68
71514;DHT22;59335;46.652;21.272;2024-01-11T00:59:48;22.60;27.74
71514;DHT22;59335;46.652;21.272;2024-01-11T01:02:51;22.63;27.74
71514;DHT22;59335;46.652;21.272;2024-01-11T01:05:53;22.60;27.71
71514;DHT22;59335;46.652;21.272;2024-01-11T01:08:56;22.60;27.55
71514;DHT22;59335;46.652;21.272;2024-01-11T01:11:59;22.58;27.46
71514;DHT22;59335;46.652;21.272;2024-01-11T01:15:02;22.64;27.68
71514;DHT22;59335;46.652;21.272;2024-01-11T01:18:05;22.60;27.51
71514;DHT22;59335;46.652;21.272;2024-01-11T01:21:08;22.60;27.52
71514;DHT22;59335;46.652;21.272;2024-01-11T01:24:11;22.58;27.60
71514;DHT22;59335;46.652;21.272;2024-01-11T01:27:14;22.60;27.60
71514;DHT22;59335;46.652;21.272;2024-01-11T01:30:16;22.60;27.51
71514;DHT22;59335;46.652;21.272;2024-01-11T01:33:19;22.60;27.48
71514;DHT22;59335;46.652;21.272;2024-01-11T01:36:22;22.60;27.48
71514;DHT22;59335;46.652;21.272;2024-01-11T01:39:25;22.61;27.45
71514;DHT22;59335;46.652;21.272;2024-01-11T01:42:28;22.61;27.49
71514;DHT22;59335;46.652;21.272;2024-01-11T01:45:31;22.60;27.46
71514;DHT22;59335;46.652;21.272;2024-01-11T01:48:35;22.61;27.52
71514;DHT22;59335;46.652;21.272;2024-01-11T01:51:39;22.60;27.54
71514;DHT22;59335;46.652;21.272;2024-01-11T01:54:42;22.60;27.34
71514;DHT22;59335;46.652;21.272;2024-01-11T01:57:46;22.60;27.34
71514;DHT22;59335;46.652;21.272;2024-01-11T02:00:50;22.60;27.38
71514;DHT22;59335;46.652;21.272;2024-01-11T02:03:54;22.58;27.34
71514;DHT22;59335;46.652;21.272;2024-01-11T02:06:57;22.61;27.33
71514;DHT22;59335;46.652;21.272;2024-01-11T02:10:01;22.60;27.28
71514;DHT22;59335;46.652;21.272;2024-01-11T02:13:06;22.61;27.28
71514;DHT22;59335;46.652;21.272;2024-01-11T02:16:13;22.61;27.32
71514;DHT22;59335;46.652;21.272;2024-01-11T02:19:19;22.60;27.34
71514;DHT22;59335;46.652;21.272;2024-01-11T02:22:24;22.61;27.40
71514;DHT22;59335;46.652;21.272;2024-01-11T02:25:30;22.61;27.21
71514;DHT22;59335;46.652;21.272;2024-01-11T02:28:33;22.60;27.34
71514;DHT22;59335;46.652;21.272;2024-01-11T02:31:35;22.58;27.25
71514;DHT22;59335;46.652;21.272;2024-01-11T02:34:38;22.61;27.37
71514;DHT22;59335;46.652;21.272;2024-01-11T02:37:41;22.60;27.19
71514;DHT22;59335;46.652;21.272;2024-01-11T02:40:44;22.61;27.20
71514;DHT22;59335;46.652;21.272;2024-01-11T02:43:48;22.60;27.19
71514;DHT22;59335;46.652;21.272;2024-01-11T02:46:52;22.57;27.20
71514;DHT22;59335;46.652;21.272;2024-01-11T02:49:55;22.61;27.24
71514;DHT22;59335;46.652;21.272;2024-01-11T02:52:58;22.58;27.23
71514;DHT22;59335;46.652;21.272;2024-01-11T02:56:01;22.61;27.20
71514;DHT22;59335;46.652;21.272;2024-01-11T02:59:05;22.58;27.14
71514;DHT22;59335;46.652;21.272;2024-01-11T03:02:08;22.61;27.14
71514;DHT22;59335;46.652;21.272;2024-01-11T03:05:11;22.60;27.13
71514;DHT22;59335;46.652;21.272;2024-01-11T03:08:14;22.60;27.10
71514;DHT22;59335;46.652;21.272;2024-01-11T03:11:17;22.60;27.14
71514;DHT22;59335;46.652;21.272;2024-01-11T03:14:20;22.63;27.07
71514;DHT22;59335;46.652;21.272;2024-01-11T03:17:22;22.60;27.01
71514;DHT22;59335;46.652;21.272;2024-01-11T03:20:25;22.61;27.02
71514;DHT22;59335;46.652;21.272;2024-01-11T03:23:29;22.60;26.98
71514;DHT22;59335;46.652;21.272;2024-01-11T03:26:31;22.58;26.90
71514;DHT22;59335;46.652;21.272;2024-01-11T03:29:35;22.60;27.01
71514;DHT22;59335;46.652;21.272;2024-01-11T03:32:38;22.60;26.90
71514;DHT22;59335;46.652;21.272;2024-01-11T03:35:42;22.60;26.99
71514;DHT22;59335;46.652;21.272;2024-01-11T03:38:46;22.58;27.01
71514;DHT22;59335;46.652;21.272;2024-01-11T03:41:53;22.61;27.05
71514;DHT22;59335;46.652;21.272;2024-01-11T03:44:57;22.60;27.14
71514;DHT22;59335;46.652;21.272;2024-01-11T03:47:59;22.60;27.02
71514;DHT22;59335;46.652;21.272;2024-01-11T03:51:02;22.61;27.04
71514;DHT22;59335;46.652;21.272;2024-01-11T03:54:05;22.60;27.02
71514;DHT22;59335;46.652;21.272;2024-01-11T03:57:07;22.60;27.04
71514;DHT22;59335;46.652;21.272;2024-01-11T04:00:10;22.61;27.07
71514;DHT22;59335;46.652;21.272;2024-01-11T04:03:13;22.60;26.98
71514;DHT22;59335;46.652;21.272;2024-01-11T04:06:22;22.60;26.99
71514;DHT22;59335;46.652;21.272;2024-01-11T04:09:26;22.60;27.04
71514;DHT22;59335;46.652;21.272;2024-01-11T04:12:29;22.60;26.95
71514;DHT22;59335;46.652;21.272;2024-01-11T04:15:32;22.63;26.87
71514;DHT22;59335;46.652;21.272;2024-01-11T04:18:36;22.60;26.96
71514;DHT22;59335;46.652;21.272;2024-01-11T04:21:39;22.61;26.89
71514;DHT22;59335;46.652;21.272;2024-01-11T04:24:43;22.61;26.96
71514;DHT22;59335;46.652;21.272;2024-01-11T04:27:46;22.61;26.87
71514;DHT22;59335;46.652;21.272;2024-01-11T04:30:49;22.60;26.92
71514;DHT22;59335;46.652;21.272;2024-01-11T04:33:51;22.60;26.81
71514;DHT22;59335;46.652;21.272;2024-01-11T04:36:55;22.60;26.92
71514;DHT22;59335;46.652;21.272;2024-01-11T04:39:58;22.60;27.00
71514;DHT22;59335;46.652;21.272;2024-01-11T04:43:03;22.61;26.89
71514;DHT22;59335;46.652;21.272;2024-01-11T04:46:18;22.61;26.89
71514;DHT22;59335;46.652;21.272;2024-01-11T04:49:21;22.61;26.83
71514;DHT22;59335;46.652;21.272;2024-01-11T04:52:24;22.61;26.95
71514;DHT22;59335;46.652;21.272;2024-01-11T04:55:27;22.60;26.92
71514;DHT22;59335;46.652;21.272;2024-01-11T04:58:30;22.63;26.84
71514;DHT22;59335;46.652;21.272;2024-01-11T05:01:32;22.63;26.87
71514;DHT22;59335;46.652;21.272;2024-01-11T05:04:35;22.61;26.90
71514;DHT22;59335;46.652;21.272;2024-01-11T05:07:38;22.61;26.84
71514;DHT22;59335;46.652;21.272;2024-01-11T05:10:41;22.63;26.92
71514;DHT22;59335;46.652;21.272;2024-01-11T05:13:44;22.63;26.80
71514;DHT22;59335;46.652;21.272;2024-01-11T05:16:51;22.60;26.67
71514;DHT22;59335;46.652;21.272;2024-01-11T05:19:53;22.61;26.78
71514;DHT22;59335;46.652;21.272;2024-01-11T05:22:56;22.60;26.72
71514;DHT22;59335;46.652;21.272;2024-01-11T05:25:59;22.61;26.78
71514;DHT22;59335;46.652;21.272;2024-01-11T05:29:02;22.61;26.75
71514;DHT22;59335;46.652;21.272;2024-01-11T05:32:07;22.60;26.78
71514;DHT22;59335;46.652;21.272;2024-01-11T05:35:10;22.60;26.78
71514;DHT22;59335;46.652;21.272;2024-01-11T05:38:13;22.63;26.73
71514;DHT22;59335;46.652;21.272;2024-01-11T05:41:16;22.61;26.75
71514;DHT22;59335;46.652;21.272;2024-01-11T05:44:18;22.60;26.71
71514;DHT22;59335;46.652;21.272;2024-01-11T05:47:21;22.60;26.78
71514;DHT22;59335;46.652;21.272;2024-01-11T05:50:25;22.60;26.73
71514;DHT22;59335;46.652;21.272;2024-01-11T05:53:28;22.58;26.63
71514;DHT22;59335;46.652;21.272;2024-01-11T05:56:30;22.60;26.79
71514;DHT22;59335;46.652;21.272;2024-01-11T05:59:33;22.57;27.20
71514;DHT22;59335;46.652;21.272;2024-01-11T06:02:36;22.61;27.16
71514;DHT22;59335;46.652;21.272;2024-01-11T06:05:39;22.64;27.18
71514;DHT22;59335;46.652;21.272;2024-01-11T06:08:43;22.65;27.25
71514;DHT22;59335;46.652;21.272;2024-01-11T06:11:46;22.67;27.16
71514;DHT22;59335;46.652;21.272;2024-01-11T06:14:49;22.63;27.25
71514;DHT22;59335;46.652;21.272;2024-01-11T06:17:52;22.57;27.55
71514;DHT22;59335;46.652;21.272;2024-01-11T06:20:55;22.60;27.66
71514;DHT22;59335;46.652;21.272;2024-01-11T06:23:58;22.68;27.62
71514;DHT22;59335;46.652;21.272;2024-01-11T06:27:01;22.63;27.74
71514;DHT22;59335;46.652;21.272;2024-01-11T06:30:05;22.64;27.70
71514;DHT22;59335;46.652;21.272;2024-01-11T06:33:08;22.68;27.80
71514;DHT22;59335;46.652;21.272;2024-01-11T06:36:13;22.67;27.83
71514;DHT22;59335;46.652;21.272;2024-01-11T06:39:21;22.69;27.89
71514;DHT22;59335;46.652;21.272;2024-01-11T06:42:25;22.68;28.00
71514;DHT22;59335;46.652;21.272;2024-01-11T06:45:28;22.76;28.47
71514;DHT22;59335;46.652;21.272;2024-01-11T06:48:32;22.82;28.71
71514;DHT22;59335;46.652;21.272;2024-01-11T06:51:44;22.84;28.68
71514;DHT22;59335;46.652;21.272;2024-01-11T06:54:47;22.84;29.59
71514;DHT22;59335;46.652;21.272;2024-01-11T06:57:53;22.91;29.20
71514;DHT22;59335;46.652;21.272;2024-01-11T07:01:01;22.99;29.48
71514;DHT22;59335;46.652;21.272;2024-01-11T07:04:13;23.11;29.67
71514;DHT22;59335;46.652;21.272;2024-01-11T07:07:19;23.16;29.72
71514;DHT22;59335;46.652;21.272;2024-01-11T07:10:21;23.20;29.54
71514;DHT22;59335;46.652;21.272;2024-01-11T07:13:26;23.22;29.51
71514;DHT22;59335;46.652;21.272;2024-01-11T07:16:30;23.19;29.55
71514;DHT22;59335;46.652;21.272;2024-01-11T07:19:33;23.24;29.64
71514;DHT22;59335;46.652;21.272;2024-01-11T07:22:36;23.30;29.67
71514;DHT22;59335;46.652;21.272;2024-01-11T07:25:43;23.27;29.69
71514;DHT22;59335;46.652;21.272;2024-01-11T07:28:46;23.32;29.66
71514;DHT22;59335;46.652;21.272;2024-01-11T07:31:51;23.32;29.69
71514;DHT22;59335;46.652;21.272;2024-01-11T07:34:55;23.30;29.67
71514;DHT22;59335;46.652;21.272;2024-01-11T07:38:05;23.30;29.73
71514;DHT22;59335;46.652;21.272;2024-01-11T07:41:08;23.33;29.67
71514;DHT22;59335;46.652;21.272;2024-01-11T07:44:11;23.30;30.17
71514;DHT22;59335;46.652;21.272;2024-01-11T07:47:14;23.33;30.81
71514;DHT22;59335;46.652;21.272;2024-01-11T07:50:19;23.30;30.57
71514;DHT22;59335;46.652;21.272;2024-01-11T07:53:24;23.36;30.74
71514;DHT22;59335;46.652;21.272;2024-01-11T07:56:31;23.30;30.88
71514;DHT22;59335;46.652;21.272;2024-01-11T07:59:36;23.36;31.01
71514;DHT22;59335;46.652;21.272;2024-01-11T08:02:51;23.45;30.84
71514;DHT22;59335;46.652;21.272;2024-01-11T08:05:53;23.45;31.26
71514;DHT22;59335;46.652;21.272;2024-01-11T08:08:58;23.45;31.25
71514;DHT22;59335;46.652;21.272;2024-01-11T08:12:04;23.46;31.08
71514;DHT22;59335;46.652;21.272;2024-01-11T08:15:10;23.40;31.65
71514;DHT22;59335;46.652;21.272;2024-01-11T08:18:19;23.40;31.21
71514;DHT22;59335;46.652;21.272;2024-01-11T08:21:24;23.42;31.18
71514;DHT22;59335;46.652;21.272;2024-01-11T08:24:27;23.42;31.12
71514;DHT22;59335;46.652;21.272;2024-01-11T08:27:30;23.45;31.11
71514;DHT22;59335;46.652;21.272;2024-01-11T08:30:34;23.46;31.13
71514;DHT22;59335;46.652;21.272;2024-01-11T08:33:40;23.46;31.10
71514;DHT22;59335;46.652;21.272;2024-01-11T08:36:43;23.46;31.08
71514;DHT22;59335;46.652;21.272;2024-01-11T08:39:47;23.47;31.13
71514;DHT22;59335;46.652;21.272;2024-01-11T08:42:51;23.46;31.19
71514;DHT22;59335;46.652;21.272;2024-01-11T08:45:55;23.45;31.12
71514;DHT22;59335;46.652;21.272;2024-01-11T08:49:02;23.43;31.77
71514;DHT22;59335;46.652;21.272;2024-01-11T08:52:09;23.46;31.61
71514;DHT22;59335;46.652;21.272;2024-01-11T08:55:13;23.45;31.78
71514;DHT22;59335;46.652;21.272;2024-01-11T08:58:16;23.47;31.98
71514;DHT22;59335;46.652;21.272;2024-01-11T09:01:26;23.50;32.06
71514;DHT22;59335;46.652;21.272;2024-01-11T09:04:30;23.50;31.94
71514;DHT22;59335;46.652;21.272;2024-01-11T09:07:32;23.51;31.85
71514;DHT22;59335;46.652;21.272;2024-01-11T09:10:40;23.51;31.83
71514;DHT22;59335;46.652;21.272;2024-01-11T09:13:44;23.53;31.97
71514;DHT22;59335;46.652;21.272;2024-01-11T09:16:48;23.57;31.82
71514;DHT22;59335;46.652;21.272;2024-01-11T09:19:52;23.63;31.80
71514;DHT22;59335;46.652;21.272;2024-01-11T09:22:55;23.63;31.83
71514;DHT22;59335;46.652;21.272;2024-01-11T09:25:58;23.60;31.87
71514;DHT22;59335;46.652;21.272;2024-01-11T09:29:01;23.59;31.90
71514;DHT22;59335;46.652;21.272;2024-01-11T09:32:05;23.63;31.91
71514;DHT22;59335;46.652;21.272;2024-01-11T09:35:08;23.63;31.92
71514;DHT22;59335;46.652;21.272;2024-01-11T09:38:15;23.66;31.89
71514;DHT22;59335;46.652;21.272;2024-01-11T09:41:18;23.69;32.09
71514;DHT22;59335;46.652;21.272;2024-01-11T09:44:21;23.73;32.06
71514;DHT22;59335;46.652;21.272;2024-01-11T09:47:26;23.73;32.09
71514;DHT22;59335;46.652;21.272;2024-01-11T09:50:29;23.77;32.38
71514;DHT22;59335;46.652;21.272;2024-01-11T09:53:36;23.80;32.84
71514;DHT22;59335;46.652;21.272;2024-01-11T09:56:50;23.81;33.21
71514;DHT22;59335;46.652;21.272;2024-01-11T09:59:58;23.66;33.21
71514;DHT22;59335;46.652;21.272;2024-01-11T10:03:06;23.64;32.59
71514;DHT22;59335;46.652;21.272;2024-01-11T10:06:13;23.69;32.76
71514;DHT22;59335;46.652;21.272;2024-01-11T10:09:18;23.77;32.88
71514;DHT22;59335;46.652;21.272;2024-01-11T10:12:21;23.75;32.93
71514;DHT22;59335;46.652;21.272;2024-01-11T10:15:28;23.80;32.93
71514;DHT22;59335;46.652;21.272;2024-01-11T10:18:30;23.78;32.90
71514;DHT22;59335;46.652;21.272;2024-01-11T10:21:37;23.82;32.82
71514;DHT22;59335;46.652;21.272;2024-01-11T10:24:42;23.85;32.85
71514;DHT22;59335;46.652;21.272;2024-01-11T10:27:46;23.87;32.35
71514;DHT22;59335;46.652;21.272;2024-01-11T10:30:51;23.87;32.35
71514;DHT22;59335;46.652;21.272;2024-01-11T10:33:55;23.81;32.04
71514;DHT22;59335;46.652;21.272;2024-01-11T10:36:59;23.84;32.06
71514;DHT22;59335;46.652;21.272;2024-01-11T10:40:04;23.80;32.14
71514;DHT22;59335;46.652;21.272;2024-01-11T10:43:14;23.80;32.14
71514;DHT22;59335;46.652;21.272;2024-01-11T10:46:24;23.74;31.83
71514;DHT22;59335;46.652;21.272;2024-01-11T10:49:30;23.74;32.00
71514;DHT22;59335;46.652;21.272;2024-01-11T10:52:42;23.80;32.39
71514;DHT22;59335;46.652;21.272;2024-01-11T10:55:47;23.81;33.05
71514;DHT22;59335;46.652;21.272;2024-01-11T10:58:51;23.84;32.91
71514;DHT22;59335;46.652;21.272;2024-01-11T11:01:59;23.90;33.48
71514;DHT22;59335;46.652;21.272;2024-01-11T11:05:05;23.87;33.09
71514;DHT22;59335;46.652;21.272;2024-01-11T11:08:13;23.90;33.28
71514;DHT22;59335;46.652;21.272;2024-01-11T11:11:17;23.88;33.27
71514;DHT22;59335;46.652;21.272;2024-01-11T11:14:21;23.88;33.06
71514;DHT22;59335;46.652;21.272;2024-01-11T11:17:25;23.87;33.35
71514;DHT22;59335;46.652;21.272;2024-01-11T11:20:32;23.88;33.11
71514;DHT22;59335;46.652;21.272;2024-01-11T11:23:35;23.88;33.05
71514;DHT22;59335;46.652;21.272;2024-01-11T11:26:38;23.93;33.04
71514;DHT22;59335;46.652;21.272;2024-01-11T11:29:41;23.96;32.99
71514;DHT22;59335;46.652;21.272;2024-01-11T11:32:44;23.97;33.01
71514;DHT22;59335;46.652;21.272;2024-01-11T11:35:49;23.97;33.02
71514;DHT22;59335;46.652;21.272;2024-01-11T11:38:55;23.97;33.21
71514;DHT22;59335;46.652;21.272;2024-01-11T11:42:04;23.91;33.10
71514;DHT22;59335;46.652;21.272;2024-01-11T11:45:07;23.91;33.04
71514;DHT22;59335;46.652;21.272;2024-01-11T11:51:43;23.94;32.97
71514;DHT22;59335;46.652;21.272;2024-01-11T11:54:46;23.96;33.25
71514;DHT22;59335;46.652;21.272;2024-01-11T11:57:49;23.93;33.40
71514;DHT22;59335;46.652;21.272;2024-01-11T12:00:53;23.87;33.08
71514;DHT22;59335;46.652;21.272;2024-01-11T12:03:58;23.87;33.02
71514;DHT22;59335;46.652;21.272;2024-01-11T12:07:02;23.90;33.08
71514;DHT22;59335;46.652;21.272;2024-01-11T12:10:08;23.91;33.08
71514;DHT22;59335;46.652;21.272;2024-01-11T12:13:12;23.88;33.17
71514;DHT22;59335;46.652;21.272;2024-01-11T12:16:16;23.88;33.22
71514;DHT22;59335;46.652;21.272;2024-01-11T12:19:19;23.87;33.09
71514;DHT22;59335;46.652;21.272;2024-01-11T12:22:26;23.84;33.34
71514;DHT22;59335;46.652;21.272;2024-01-11T12:25:30;23.87;33.58
71514;DHT22;59335;46.652;21.272;2024-01-11T12:28:35;23.88;33.32
71514;DHT22;59335;46.652;21.272;2024-01-11T12:31:39;23.87;33.22
71514;DHT22;59335;46.652;21.272;2024-01-11T12:34:43;23.84;33.26
71514;DHT22;59335;46.652;21.272;2024-01-11T12:37:59;23.82;33.11
71514;DHT22;59335;46.652;21.272;2024-01-11T12:41:02;23.82;33.01
71514;DHT22;59335;46.652;21.272;2024-01-11T12:44:06;23.78;33.01
71514;DHT22;59335;46.652;21.272;2024-01-11T12:47:09;23.80;32.91
71514;DHT22;59335;46.652;21.272;2024-01-11T12:50:12;23.80;32.87
71514;DHT22;59335;46.652;21.272;2024-01-11T12:53:15;23.84;33.01
71514;DHT22;59335;46.652;21.272;2024-01-11T12:56:21;23.82;33.03
71514;DHT22;59335;46.652;21.272;2024-01-11T12:59:27;23.82;33.15
71514;DHT22;59335;46.652;21.272;2024-01-11T13:02:32;23.82;33.14
71514;DHT22;59335;46.652;21.272;2024-01-11T13:05:37;23.85;33.14
71514;DHT22;59335;46.652;21.272;2024-01-11T13:08:43;23.84;33.11
71514;DHT22;59335;46.652;21.272;2024-01-11T13:11:46;23.85;33.03
71514;DHT22;59335;46.652;21.272;2024-01-11T13:14:49;23.88;32.99
71514;DHT22;59335;46.652;21.272;2024-01-11T13:17:53;23.90;33.02
71514;DHT22;59335;46.652;21.272;2024-01-11T13:20:56;23.90;32.99
71514;DHT22;59335;46.652;21.272;2024-01-11T13:23:59;23.91;33.10
71514;DHT22;59335;46.652;21.272;2024-01-11T13:27:02;23.91;33.26
71514;DHT22;59335;46.652;21.272;2024-01-11T13:30:06;23.90;33.17
71514;DHT22;59335;46.652;21.272;2024-01-11T13:33:11;23.90;33.05
71514;DHT22;59335;46.652;21.272;2024-01-11T13:36:15;23.91;33.04
71514;DHT22;59335;46.652;21.272;2024-01-11T13:39:17;23.90;32.91
71514;DHT22;59335;46.652;21.272;2024-01-11T13:42:21;23.84;33.17
71514;DHT22;59335;46.652;21.272;2024-01-11T13:45:27;23.84;33.09
71514;DHT22;59335;46.652;21.272;2024-01-11T13:48:32;23.84;33.03
71514;DHT22;59335;46.652;21.272;2024-01-11T13:51:35;23.81;33.00
71514;DHT22;59335;46.652;21.272;2024-01-11T13:54:57;23.80;32.98
71514;DHT22;59335;46.652;21.272;2024-01-11T13:58:00;23.82;32.92
71514;DHT22;59335;46.652;21.272;2024-01-11T14:01:04;23.82;32.94
71514;DHT22;59335;46.652;21.272;2024-01-11T14:04:07;23.82;32.86
71514;DHT22;59335;46.652;21.272;2024-01-11T14:07:12;23.82;32.88
71514;DHT22;59335;46.652;21.272;2024-01-11T14:10:15;23.85;32.94
71514;DHT22;59335;46.652;21.272;2024-01-11T14:13:18;23.82;32.87
71514;DHT22;59335;46.652;21.272;2024-01-11T14:16:21;23.81;32.84
71514;DHT22;59335;46.652;21.272;2024-01-11T14:19:26;23.85;33.18
71514;DHT22;59335;46.652;21.272;2024-01-11T14:22:30;23.84;33.24
71514;DHT22;59335;46.652;21.272;2024-01-11T14:25:33;23.85;33.70
71514;DHT22;59335;46.652;21.272;2024-01-11T14:28:37;23.87;33.71
71514;DHT22;59335;46.652;21.272;2024-01-11T14:31:45;23.84;33.49
71514;DHT22;59335;46.652;21.272;2024-01-11T14:34:48;23.82;33.29
71514;DHT22;59335;46.652;21.272;2024-01-11T14:37:51;23.85;33.17
71514;DHT22;59335;46.652;21.272;2024-01-11T14:40:55;23.82;33.06
71514;DHT22;59335;46.652;21.272;2024-01-11T14:44:00;23.82;33.12
71514;DHT22;59335;46.652;21.272;2024-01-11T14:47:07;23.81;33.14
71514;DHT22;59335;46.652;21.272;2024-01-11T14:50:10;23.78;33.07
71514;DHT22;59335;46.652;21.272;2024-01-11T14:53:14;23.84;33.01
71514;DHT22;59335;46.652;21.272;2024-01-11T14:56:17;23.77;33.13
71514;DHT22;59335;46.652;21.272;2024-01-11T14:59:20;23.73;33.25
71514;DHT22;59335;46.652;21.272;2024-01-11T15:02:23;23.70;33.15
71514;DHT22;59335;46.652;21.272;2024-01-11T15:05:27;23.67;33.18
71514;DHT22;59335;46.652;21.272;2024-01-11T15:08:29;23.61;33.13
71514;DHT22;59335;46.652;21.272;2024-01-11T15:11:33;23.59;33.11
71514;DHT22;59335;46.652;21.272;2024-01-11T15:14:38;23.56;33.16
71514;DHT22;59335;46.652;21.272;2024-01-11T15:17:42;23.54;33.23
71514;DHT22;59335;46.652;21.272;2024-01-11T15:20:45;23.49;33.12
71514;DHT22;59335;46.652;21.272;2024-01-11T15:23:48;23.50;33.04
71514;DHT22;59335;46.652;21.272;2024-01-11T15:26:51;23.46;33.06
71514;DHT22;59335;46.652;21.272;2024-01-11T15:29:54;23.46;32.88
71514;DHT22;59335;46.652;21.272;2024-01-11T15:32:57;23.45;32.78
71514;DHT22;59335;46.652;21.272;2024-01-11T15:36:05;23.43;32.72
71514;DHT22;59335;46.652;21.272;2024-01-11T15:39:08;23.45;32.73
71514;DHT22;59335;46.652;21.272;2024-01-11T15:42:28;23.43;32.73
71514;DHT22;59335;46.652;21.272;2024-01-11T15:45:30;23.40;32.81
71514;DHT22;59335;46.652;21.272;2024-01-11T15:48:36;23.40;32.79
71514;DHT22;59335;46.652;21.272;2024-01-11T15:51:39;23.40;32.64
71514;DHT22;59335;46.652;21.272;2024-01-11T15:54:42;23.38;31.88
71514;DHT22;59335;46.652;21.272;2024-01-11T15:57:45;23.33;32.97
71514;DHT22;59335;46.652;21.272;2024-01-11T16:00:48;23.26;35.61
71514;DHT22;59335;46.652;21.272;2024-01-11T16:03:51;23.19;39.05
71514;DHT22;59335;46.652;21.272;2024-01-11T16:06:55;23.06;50.41
71514;DHT22;59335;46.652;21.272;2024-01-11T16:09:59;23.12;48.38
71514;DHT22;59335;46.652;21.272;2024-01-11T16:13:02;23.15;46.91
71514;DHT22;59335;46.652;21.272;2024-01-11T16:16:05;23.18;47.11
71514;DHT22;59335;46.652;21.272;2024-01-11T16:19:08;23.16;45.90
71514;DHT22;59335;46.652;21.272;2024-01-11T16:22:12;23.19;44.49
71514;DHT22;59335;46.652;21.272;2024-01-11T16:25:15;23.18;43.25
71514;DHT22;59335;46.652;21.272;2024-01-11T16:28:19;23.18;42.75
71514;DHT22;59335;46.652;21.272;2024-01-11T16:31:22;23.18;41.88
71514;DHT22;59335;46.652;21.272;2024-01-11T16:34:27;23.18;41.69
71514;DHT22;59335;46.652;21.272;2024-01-11T16:37:31;23.20;40.96
71514;DHT22;59335;46.652;21.272;2024-01-11T16:40:33;23.19;39.86
71514;DHT22;59335;46.652;21.272;2024-01-11T16:43:37;23.19;39.42
71514;DHT22;59335;46.652;21.272;2024-01-11T16:46:39;23.20;39.00
71514;DHT22;59335;46.652;21.272;2024-01-11T16:49:42;23.22;38.73
71514;DHT22;59335;46.652;21.272;2024-01-11T16:52:48;23.23;38.27
71514;DHT22;59335;46.652;21.272;2024-01-11T16:55:50;23.24;38.17
71514;DHT22;59335;46.652;21.272;2024-01-11T16:58:53;23.23;37.80
71514;DHT22;59335;46.652;21.272;2024-01-11T17:01:57;23.24;37.54
71514;DHT22;59335;46.652;21.272;2024-01-11T17:05:00;23.26;37.45
71514;DHT22;59335;46.652;21.272;2024-01-11T17:08:03;23.26;37.22
71514;DHT22;59335;46.652;21.272;2024-01-11T17:11:07;23.26;37.15
71514;DHT22;59335;46.652;21.272;2024-01-11T17:14:10;23.26;36.97
71514;DHT22;59335;46.652;21.272;2024-01-11T17:17:12;23.24;36.97
71514;DHT22;59335;46.652;21.272;2024-01-11T17:20:15;23.26;36.80
71514;DHT22;59335;46.652;21.272;2024-01-11T17:23:20;23.26;36.76
71514;DHT22;59335;46.652;21.272;2024-01-11T17:26:23;23.24;36.61
71514;DHT22;59335;46.652;21.272;2024-01-11T17:29:26;23.24;36.48
71514;DHT22;59335;46.652;21.272;2024-01-11T17:32:30;23.26;36.38
71514;DHT22;59335;46.652;21.272;2024-01-11T17:35:33;23.23;36.14
71514;DHT22;59335;46.652;21.272;2024-01-11T17:38:36;23.27;35.93
71514;DHT22;59335;46.652;21.272;2024-01-11T17:41:39;23.27;35.88
71514;DHT22;59335;46.652;21.272;2024-01-11T17:44:45;23.26;35.89
71514;DHT22;59335;46.652;21.272;2024-01-11T17:47:48;23.24;35.52
71514;DHT22;59335;46.652;21.272;2024-01-11T17:50:50;23.26;35.51
71514;DHT22;59335;46.652;21.272;2024-01-11T17:53:53;23.22;35.36
71514;DHT22;59335;46.652;21.272;2024-01-11T17:56:57;23.23;35.26
71514;DHT22;59335;46.652;21.272;2024-01-11T18:00:00;23.23;35.13
71514;DHT22;59335;46.652;21.272;2024-01-11T18:03:06;23.24;35.07
71514;DHT22;59335;46.652;21.272;2024-01-11T18:06:09;23.23;34.95
71514;DHT22;59335;46.652;21.272;2024-01-11T18:09:12;23.22;34.86
71514;DHT22;59335;46.652;21.272;2024-01-11T18:12:15;23.23;34.78
71514;DHT22;59335;46.652;21.272;2024-01-11T18:15:18;23.22;34.78
71514;DHT22;59335;46.652;21.272;2024-01-11T18:18:21;23.22;34.71
71514;DHT22;59335;46.652;21.272;2024-01-11T18:21:25;23.22;34.56
71514;DHT22;59335;46.652;21.272;2024-01-11T18:24:27;23.23;34.47
71514;DHT22;59335;46.652;21.272;2024-01-11T18:27:30;23.23;34.36
71514;DHT22;59335;46.652;21.272;2024-01-11T18:30:34;23.22;34.26
71514;DHT22;59335;46.652;21.272;2024-01-11T18:33:37;23.23;34.24
71514;DHT22;59335;46.652;21.272;2024-01-11T18:36:46;23.23;34.03
71514;DHT22;59335;46.652;21.272;2024-01-11T18:39:49;23.22;33.90
71514;DHT22;59335;46.652;21.272;2024-01-11T18:42:51;23.20;33.97
71514;DHT22;59335;46.652;21.272;2024-01-11T18:45:55;23.24;33.96
71514;DHT22;59335;46.652;21.272;2024-01-11T18:48:57;23.23;33.81
71514;DHT22;59335;46.652;21.272;2024-01-11T18:52:01;23.22;33.73
71514;DHT22;59335;46.652;21.272;2024-01-11T18:55:03;23.20;33.65
71514;DHT22;59335;46.652;21.272;2024-01-11T18:58:19;23.19;33.48
71514;DHT22;59335;46.652;21.272;2024-01-11T19:01:23;23.20;33.35
71514;DHT22;59335;46.652;21.272;2024-01-11T19:04:28;23.20;33.34
71514;DHT22;59335;46.652;21.272;2024-01-11T19:07:31;23.20;33.27